sensor_id;sensor_type;location;lat;lon;timestamp;P1;durP1;ratioP1;P2;durP2;ratioP2
9643;SDS011;4860;50.900;4.720;2023-02-11T00:01:30;0.30;;;0.30;;
9643;SDS011;4860;50.900;4.720;2023-02-11T00:03:57;0.30;;;0.30;;
9643;SDS011;4860;50.900;4.720;2023-02-11T00:06:24;0.30;;;0.30;;
9643;SDS011;4860;50.900;4.720;2023-02-11T00:08:50;0.30;;;0.30;;
9643;SDS011;4860;50.900;4.720;2023-02-11T00:11:17;0.30;;;0.30;;
9643;SDS011;4860;50.900;4.720;2023-02-11T00:13:44;0.30;;;0.30;;
9643;SDS011;4860;50.900;4.720;2023-02-11T00:16:20;0.40;;;0.40;;
9643;SDS011;4860;50.900;4.720;2023-02-11T00:18:46;0.30;;;0.30;;
9643;SDS011;4860;50.900;4.720;2023-02-11T00:21:13;0.40;;;0.40;;
9643;SDS011;4860;50.900;4.720;2023-02-11T00:23:40;0.30;;;0.30;;
9643;SDS011;4860;50.900;4.720;2023-02-11T00:26:22;0.30;;;0.30;;
9643;SDS011;4860;50.900;4.720;2023-02-11T00:28:49;0.30;;;0.30;;
9643;SDS011;4860;50.900;4.720;2023-02-11T00:31:16;0.30;;;0.30;;
9643;SDS011;4860;50.900;4.720;2023-02-11T00:33:43;0.30;;;0.30;;
9643;SDS011;4860;50.900;4.720;2023-02-11T00:36:14;0.30;;;0.30;;
9643;SDS011;4860;50.900;4.720;2023-02-11T00:38:41;0.30;;;0.30;;
9643;SDS011;4860;50.900;4.720;2023-02-11T00:41:08;0.30;;;0.30;;
9643;SDS011;4860;50.900;4.720;2023-02-11T00:43:34;0.30;;;0.30;;
9643;SDS011;4860;50.900;4.720;2023-02-11T00:46:01;0.30;;;0.30;;
9643;SDS011;4860;50.900;4.720;2023-02-11T00:48:27;0.30;;;0.30;;
9643;SDS011;4860;50.900;4.720;2023-02-11T00:50:53;0.30;;;0.30;;
9643;SDS011;4860;50.900;4.720;2023-02-11T00:53:19;0.30;;;0.30;;
9643;SDS011;4860;50.900;4.720;2023-02-11T00:55:46;0.30;;;0.30;;
9643;SDS011;4860;50.900;4.720;2023-02-11T00:58:12;0.40;;;0.40;;
9643;SDS011;4860;50.900;4.720;2023-02-11T01:00:38;0.30;;;0.30;;
9643;SDS011;4860;50.900;4.720;2023-02-11T01:03:04;0.30;;;0.30;;
9643;SDS011;4860;50.900;4.720;2023-02-11T01:05:30;0.30;;;0.30;;
9643;SDS011;4860;50.900;4.720;2023-02-11T01:07:56;0.40;;;0.40;;
9643;SDS011;4860;50.900;4.720;2023-02-11T01:10:22;0.40;;;0.40;;
9643;SDS011;4860;50.900;4.720;2023-02-11T01:12:48;0.30;;;0.30;;
9643;SDS011;4860;50.900;4.720;2023-02-11T01:15:15;0.33;;;0.33;;
9643;SDS011;4860;50.900;4.720;2023-02-11T01:17:42;0.30;;;0.30;;
9643;SDS011;4860;50.900;4.720;2023-02-11T01:20:11;0.30;;;0.30;;
9643;SDS011;4860;50.900;4.720;2023-02-11T01:22:38;0.30;;;0.30;;
9643;SDS011;4860;50.900;4.720;2023-02-11T01:25:05;0.30;;;0.30;;
9643;SDS011;4860;50.900;4.720;2023-02-11T01:27:32;0.30;;;0.30;;
9643;SDS011;4860;50.900;4.720;2023-02-11T01:29:58;0.30;;;0.30;;
9643;SDS011;4860;50.900;4.720;2023-02-11T01:32:24;0.30;;;0.30;;
9643;SDS011;4860;50.900;4.720;2023-02-11T01:34:51;0.30;;;0.30;;
9643;SDS011;4860;50.900;4.720;2023-02-11T01:37:17;0.30;;;0.30;;
9643;SDS011;4860;50.900;4.720;2023-02-11T01:39:43;0.30;;;0.30;;
9643;SDS011;4860;50.900;4.720;2023-02-11T01:42:11;0.30;;;0.30;;
9643;SDS011;4860;50.900;4.720;2023-02-11T01:44:40;0.40;;;0.40;;
9643;SDS011;4860;50.900;4.720;2023-02-11T01:47:06;0.30;;;0.30;;
9643;SDS011;4860;50.900;4.720;2023-02-11T01:49:33;0.30;;;0.30;;
9643;SDS011;4860;50.900;4.720;2023-02-11T01:52:02;0.30;;;0.30;;
9643;SDS011;4860;50.900;4.720;2023-02-11T01:54:31;0.30;;;0.30;;
9643;SDS011;4860;50.900;4.720;2023-02-11T01:57:17;0.30;;;0.30;;
9643;SDS011;4860;50.900;4.720;2023-02-11T02:00:49;0.30;;;0.30;;
9643;SDS011;4860;50.900;4.720;2023-02-11T02:08:12;0.30;;;0.30;;
9643;SDS011;4860;50.900;4.720;2023-02-11T02:10:40;0.30;;;0.30;;
9643;SDS011;4860;50.900;4.720;2023-02-11T02:13:07;0.30;;;0.30;;
9643;SDS011;4860;50.900;4.720;2023-02-11T02:15:37;0.30;;;0.30;;
9643;SDS011;4860;50.900;4.720;2023-02-11T02:18:10;0.30;;;0.30;;
9643;SDS011;4860;50.900;4.720;2023-02-11T02:23:29;0.30;;;0.30;;
9643;SDS011;4860;50.900;4.720;2023-02-11T02:26:13;0.30;;;0.30;;
9643;SDS011;4860;50.900;4.720;2023-02-11T02:31:22;0.30;;;0.30;;
9643;SDS011;4860;50.900;4.720;2023-02-11T02:33:51;0.30;;;0.30;;
9643;SDS011;4860;50.900;4.720;2023-02-11T02:39:05;0.30;;;0.30;;
9643;SDS011;4860;50.900;4.720;2023-02-11T02:41:33;0.30;;;0.30;;
9643;SDS011;4860;50.900;4.720;2023-02-11T02:44:00;0.30;;;0.30;;
9643;SDS011;4860;50.900;4.720;2023-02-11T02:46:30;0.30;;;0.30;;
9643;SDS011;4860;50.900;4.720;2023-02-11T02:48:57;0.30;;;0.30;;
9643;SDS011;4860;50.900;4.720;2023-02-11T03:01:37;0.20;;;0.20;;
9643;SDS011;4860;50.900;4.720;2023-02-11T03:04:18;0.30;;;0.30;;
9643;SDS011;4860;50.900;4.720;2023-02-11T03:09:17;0.30;;;0.30;;
9643;SDS011;4860;50.900;4.720;2023-02-11T03:11:46;0.30;;;0.30;;
9643;SDS011;4860;50.900;4.720;2023-02-11T03:14:13;0.30;;;0.30;;
9643;SDS011;4860;50.900;4.720;2023-02-11T03:16:40;0.30;;;0.30;;
9643;SDS011;4860;50.900;4.720;2023-02-11T03:19:10;0.20;;;0.20;;
9643;SDS011;4860;50.900;4.720;2023-02-11T03:21:38;0.30;;;0.30;;
9643;SDS011;4860;50.900;4.720;2023-02-11T03:24:06;0.30;;;0.30;;
9643;SDS011;4860;50.900;4.720;2023-02-11T03:26:34;0.30;;;0.30;;
9643;SDS011;4860;50.900;4.720;2023-02-11T03:29:05;0.30;;;0.30;;
9643;SDS011;4860;50.900;4.720;2023-02-11T03:34:14;0.30;;;0.30;;
9643;SDS011;4860;50.900;4.720;2023-02-11T03:36:51;0.30;;;0.30;;
9643;SDS011;4860;50.900;4.720;2023-02-11T03:39:22;0.30;;;0.30;;
9643;SDS011;4860;50.900;4.720;2023-02-11T03:41:49;0.30;;;0.30;;
9643;SDS011;4860;50.900;4.720;2023-02-11T03:44:16;0.30;;;0.30;;
9643;SDS011;4860;50.900;4.720;2023-02-11T03:46:46;0.30;;;0.30;;
9643;SDS011;4860;50.900;4.720;2023-02-11T03:49:14;0.30;;;0.30;;
9643;SDS011;4860;50.900;4.720;2023-02-11T03:51:41;0.30;;;0.30;;
9643;SDS011;4860;50.900;4.720;2023-02-11T03:54:09;0.25;;;0.25;;
9643;SDS011;4860;50.900;4.720;2023-02-11T03:56:40;0.30;;;0.30;;
9643;SDS011;4860;50.900;4.720;2023-02-11T03:59:07;0.30;;;0.30;;
9643;SDS011;4860;50.900;4.720;2023-02-11T04:01:33;0.30;;;0.30;;
9643;SDS011;4860;50.900;4.720;2023-02-11T04:03:59;0.30;;;0.30;;
9643;SDS011;4860;50.900;4.720;2023-02-11T04:06:26;0.30;;;0.30;;
9643;SDS011;4860;50.900;4.720;2023-02-11T04:08:52;0.30;;;0.30;;
9643;SDS011;4860;50.900;4.720;2023-02-11T04:11:18;0.30;;;0.30;;
9643;SDS011;4860;50.900;4.720;2023-02-11T04:13:44;0.30;;;0.30;;
9643;SDS011;4860;50.900;4.720;2023-02-11T04:16:10;0.30;;;0.30;;
9643;SDS011;4860;50.900;4.720;2023-02-11T04:18:36;0.30;;;0.30;;
9643;SDS011;4860;50.900;4.720;2023-02-11T04:21:02;0.30;;;0.30;;
9643;SDS011;4860;50.900;4.720;2023-02-11T04:23:28;0.20;;;0.20;;
9643;SDS011;4860;50.900;4.720;2023-02-11T04:25:55;0.30;;;0.30;;
9643;SDS011;4860;50.900;4.720;2023-02-11T04:28:21;0.30;;;0.30;;
9643;SDS011;4860;50.900;4.720;2023-02-11T04:30:48;0.30;;;0.30;;
9643;SDS011;4860;50.900;4.720;2023-02-11T04:33:14;0.30;;;0.30;;
9643;SDS011;4860;50.900;4.720;2023-02-11T04:35:41;0.30;;;0.30;;
9643;SDS011;4860;50.900;4.720;2023-02-11T04:38:07;0.30;;;0.30;;
9643;SDS011;4860;50.900;4.720;2023-02-11T04:40:33;0.30;;;0.30;;
9643;SDS011;4860;50.900;4.720;2023-02-11T04:42:59;0.30;;;0.30;;
9643;SDS011;4860;50.900;4.720;2023-02-11T04:45:25;0.30;;;0.30;;
9643;SDS011;4860;50.900;4.720;2023-02-11T04:47:51;0.30;;;0.30;;
9643;SDS011;4860;50.900;4.720;2023-02-11T04:50:17;0.30;;;0.30;;
9643;SDS011;4860;50.900;4.720;2023-02-11T04:52:44;0.30;;;0.30;;
9643;SDS011;4860;50.900;4.720;2023-02-11T04:55:10;0.30;;;0.30;;
9643;SDS011;4860;50.900;4.720;2023-02-11T04:57:36;0.30;;;0.30;;
9643;SDS011;4860;50.900;4.720;2023-02-11T05:00:02;0.30;;;0.30;;
9643;SDS011;4860;50.900;4.720;2023-02-11T05:02:28;0.20;;;0.20;;
9643;SDS011;4860;50.900;4.720;2023-02-11T05:04:55;0.28;;;0.28;;
9643;SDS011;4860;50.900;4.720;2023-02-11T05:07:21;0.25;;;0.25;;
9643;SDS011;4860;50.900;4.720;2023-02-11T05:09:47;0.30;;;0.30;;
9643;SDS011;4860;50.900;4.720;2023-02-11T05:12:13;0.30;;;0.30;;
9643;SDS011;4860;50.900;4.720;2023-02-11T05:14:39;0.30;;;0.30;;
9643;SDS011;4860;50.900;4.720;2023-02-11T05:17:05;0.30;;;0.30;;
9643;SDS011;4860;50.900;4.720;2023-02-11T05:19:32;0.20;;;0.20;;
9643;SDS011;4860;50.900;4.720;2023-02-11T05:21:58;0.30;;;0.30;;
9643;SDS011;4860;50.900;4.720;2023-02-11T05:24:24;0.30;;;0.30;;
9643;SDS011;4860;50.900;4.720;2023-02-11T05:26:50;0.30;;;0.30;;
9643;SDS011;4860;50.900;4.720;2023-02-11T05:29:17;0.30;;;0.30;;
9643;SDS011;4860;50.900;4.720;2023-02-11T05:31:44;0.30;;;0.30;;
9643;SDS011;4860;50.900;4.720;2023-02-11T05:34:10;0.30;;;0.30;;
9643;SDS011;4860;50.900;4.720;2023-02-11T05:36:36;0.30;;;0.30;;
9643;SDS011;4860;50.900;4.720;2023-02-11T05:39:03;0.30;;;0.30;;
9643;SDS011;4860;50.900;4.720;2023-02-11T05:41:29;0.30;;;0.30;;
9643;SDS011;4860;50.900;4.720;2023-02-11T05:43:55;0.30;;;0.30;;
9643;SDS011;4860;50.900;4.720;2023-02-11T05:46:21;0.30;;;0.30;;
9643;SDS011;4860;50.900;4.720;2023-02-11T05:48:48;0.30;;;0.30;;
9643;SDS011;4860;50.900;4.720;2023-02-11T05:51:14;0.30;;;0.30;;
9643;SDS011;4860;50.900;4.720;2023-02-11T05:53:40;0.30;;;0.30;;
9643;SDS011;4860;50.900;4.720;2023-02-11T05:56:06;0.30;;;0.30;;
9643;SDS011;4860;50.900;4.720;2023-02-11T05:58:34;0.30;;;0.30;;
9643;SDS011;4860;50.900;4.720;2023-02-11T06:01:00;0.30;;;0.30;;
9643;SDS011;4860;50.900;4.720;2023-02-11T06:03:26;0.30;;;0.30;;
9643;SDS011;4860;50.900;4.720;2023-02-11T06:05:52;0.30;;;0.30;;
9643;SDS011;4860;50.900;4.720;2023-02-11T06:08:18;0.30;;;0.30;;
9643;SDS011;4860;50.900;4.720;2023-02-11T06:10:45;0.30;;;0.30;;
9643;SDS011;4860;50.900;4.720;2023-02-11T06:13:11;0.30;;;0.30;;
9643;SDS011;4860;50.900;4.720;2023-02-11T06:15:37;0.30;;;0.30;;
9643;SDS011;4860;50.900;4.720;2023-02-11T06:18:04;0.30;;;0.30;;
9643;SDS011;4860;50.900;4.720;2023-02-11T06:20:30;0.30;;;0.30;;
9643;SDS011;4860;50.900;4.720;2023-02-11T06:22:56;0.30;;;0.30;;
9643;SDS011;4860;50.900;4.720;2023-02-11T06:25:22;0.30;;;0.30;;
9643;SDS011;4860;50.900;4.720;2023-02-11T06:27:49;0.30;;;0.30;;
9643;SDS011;4860;50.900;4.720;2023-02-11T06:30:15;0.30;;;0.30;;
9643;SDS011;4860;50.900;4.720;2023-02-11T06:32:41;0.30;;;0.30;;
9643;SDS011;4860;50.900;4.720;2023-02-11T06:35:07;0.30;;;0.30;;
9643;SDS011;4860;50.900;4.720;2023-02-11T06:37:34;0.30;;;0.30;;
9643;SDS011;4860;50.900;4.720;2023-02-11T06:40:00;0.30;;;0.30;;
9643;SDS011;4860;50.900;4.720;2023-02-11T06:42:26;0.30;;;0.30;;
9643;SDS011;4860;50.900;4.720;2023-02-11T06:44:52;0.28;;;0.28;;
9643;SDS011;4860;50.900;4.720;2023-02-11T06:47:18;0.30;;;0.30;;
9643;SDS011;4860;50.900;4.720;2023-02-11T06:49:44;0.30;;;0.30;;
9643;SDS011;4860;50.900;4.720;2023-02-11T06:52:10;0.30;;;0.30;;
9643;SDS011;4860;50.900;4.720;2023-02-11T06:54:37;0.30;;;0.30;;
9643;SDS011;4860;50.900;4.720;2023-02-11T06:57:03;0.30;;;0.30;;
9643;SDS011;4860;50.900;4.720;2023-02-11T06:59:29;0.30;;;0.30;;
9643;SDS011;4860;50.900;4.720;2023-02-11T07:01:55;0.30;;;0.30;;
9643;SDS011;4860;50.900;4.720;2023-02-11T07:04:21;0.30;;;0.30;;
9643;SDS011;4860;50.900;4.720;2023-02-11T07:06:47;0.30;;;0.30;;
9643;SDS011;4860;50.900;4.720;2023-02-11T07:09:13;0.30;;;0.30;;
9643;SDS011;4860;50.900;4.720;2023-02-11T07:11:40;0.30;;;0.30;;
9643;SDS011;4860;50.900;4.720;2023-02-11T07:14:06;0.20;;;0.20;;
9643;SDS011;4860;50.900;4.720;2023-02-11T07:16:33;0.30;;;0.30;;
9643;SDS011;4860;50.900;4.720;2023-02-11T07:18:59;0.30;;;0.30;;
9643;SDS011;4860;50.900;4.720;2023-02-11T07:21:25;0.30;;;0.30;;
9643;SDS011;4860;50.900;4.720;2023-02-11T07:23:52;0.30;;;0.30;;
9643;SDS011;4860;50.900;4.720;2023-02-11T07:26:19;0.30;;;0.30;;
9643;SDS011;4860;50.900;4.720;2023-02-11T07:28:54;0.30;;;0.30;;
9643;SDS011;4860;50.900;4.720;2023-02-11T07:31:21;0.30;;;0.30;;
9643;SDS011;4860;50.900;4.720;2023-02-11T07:33:50;0.30;;;0.30;;
9643;SDS011;4860;50.900;4.720;2023-02-11T07:36:16;0.30;;;0.30;;
9643;SDS011;4860;50.900;4.720;2023-02-11T07:38:42;0.30;;;0.30;;
9643;SDS011;4860;50.900;4.720;2023-02-11T07:41:09;0.28;;;0.28;;
9643;SDS011;4860;50.900;4.720;2023-02-11T07:43:36;0.22;;;0.22;;
9643;SDS011;4860;50.900;4.720;2023-02-11T07:46:06;0.25;;;0.25;;
9643;SDS011;4860;50.900;4.720;2023-02-11T07:48:32;0.30;;;0.30;;
9643;SDS011;4860;50.900;4.720;2023-02-11T07:51:09;0.30;;;0.30;;
9643;SDS011;4860;50.900;4.720;2023-02-11T07:53:36;0.30;;;0.30;;
9643;SDS011;4860;50.900;4.720;2023-02-11T07:56:03;0.30;;;0.30;;
9643;SDS011;4860;50.900;4.720;2023-02-11T07:58:29;0.20;;;0.20;;
9643;SDS011;4860;50.900;4.720;2023-02-11T08:00:59;0.30;;;0.30;;
9643;SDS011;4860;50.900;4.720;2023-02-11T08:03:26;0.30;;;0.30;;
9643;SDS011;4860;50.900;4.720;2023-02-11T08:05:52;0.30;;;0.30;;
9643;SDS011;4860;50.900;4.720;2023-02-11T08:08:18;0.30;;;0.30;;
9643;SDS011;4860;50.900;4.720;2023-02-11T08:10:44;0.30;;;0.30;;
9643;SDS011;4860;50.900;4.720;2023-02-11T08:13:10;0.30;;;0.30;;
9643;SDS011;4860;50.900;4.720;2023-02-11T08:15:37;0.30;;;0.30;;
9643;SDS011;4860;50.900;4.720;2023-02-11T08:18:03;0.20;;;0.20;;
9643;SDS011;4860;50.900;4.720;2023-02-11T08:20:29;0.30;;;0.30;;
9643;SDS011;4860;50.900;4.720;2023-02-11T08:22:56;0.30;;;0.30;;
9643;SDS011;4860;50.900;4.720;2023-02-11T08:25:22;0.30;;;0.30;;
9643;SDS011;4860;50.900;4.720;2023-02-11T08:27:48;0.30;;;0.30;;
9643;SDS011;4860;50.900;4.720;2023-02-11T08:30:14;0.30;;;0.30;;
9643;SDS011;4860;50.900;4.720;2023-02-11T08:32:41;0.30;;;0.30;;
9643;SDS011;4860;50.900;4.720;2023-02-11T08:35:07;0.30;;;0.30;;
9643;SDS011;4860;50.900;4.720;2023-02-11T08:37:36;0.30;;;0.30;;
9643;SDS011;4860;50.900;4.720;2023-02-11T08:40:02;0.30;;;0.30;;
9643;SDS011;4860;50.900;4.720;2023-02-11T08:42:47;0.30;;;0.30;;
9643;SDS011;4860;50.900;4.720;2023-02-11T08:45:13;0.20;;;0.20;;
9643;SDS011;4860;50.900;4.720;2023-02-11T08:47:39;0.30;;;0.30;;
9643;SDS011;4860;50.900;4.720;2023-02-11T08:50:05;0.20;;;0.20;;
9643;SDS011;4860;50.900;4.720;2023-02-11T08:52:31;0.30;;;0.30;;
9643;SDS011;4860;50.900;4.720;2023-02-11T08:54:57;0.30;;;0.30;;
9643;SDS011;4860;50.900;4.720;2023-02-11T08:57:24;0.30;;;0.30;;
9643;SDS011;4860;50.900;4.720;2023-02-11T08:59:50;0.20;;;0.20;;
9643;SDS011;4860;50.900;4.720;2023-02-11T09:02:16;0.20;;;0.20;;
9643;SDS011;4860;50.900;4.720;2023-02-11T09:04:42;0.30;;;0.30;;
9643;SDS011;4860;50.900;4.720;2023-02-11T09:07:08;0.30;;;0.30;;
9643;SDS011;4860;50.900;4.720;2023-02-11T09:09:34;0.22;;;0.22;;
9643;SDS011;4860;50.900;4.720;2023-02-11T09:12:01;0.28;;;0.28;;
9643;SDS011;4860;50.900;4.720;2023-02-11T09:14:27;0.20;;;0.20;;
9643;SDS011;4860;50.900;4.720;2023-02-11T09:16:53;0.30;;;0.30;;
9643;SDS011;4860;50.900;4.720;2023-02-11T09:19:20;0.30;;;0.30;;
9643;SDS011;4860;50.900;4.720;2023-02-11T09:21:47;0.25;;;0.25;;
9643;SDS011;4860;50.900;4.720;2023-02-11T09:24:13;0.30;;;0.30;;
9643;SDS011;4860;50.900;4.720;2023-02-11T09:26:40;0.20;;;0.20;;
9643;SDS011;4860;50.900;4.720;2023-02-11T09:29:07;0.20;;;0.20;;
9643;SDS011;4860;50.900;4.720;2023-02-11T09:31:33;0.30;;;0.30;;
9643;SDS011;4860;50.900;4.720;2023-02-11T09:34:00;0.25;;;0.25;;
9643;SDS011;4860;50.900;4.720;2023-02-11T09:36:28;0.20;;;0.20;;
9643;SDS011;4860;50.900;4.720;2023-02-11T09:38:56;0.20;;;0.20;;
9643;SDS011;4860;50.900;4.720;2023-02-11T09:43:49;0.20;;;0.20;;
9643;SDS011;4860;50.900;4.720;2023-02-11T09:46:16;0.30;;;0.30;;
9643;SDS011;4860;50.900;4.720;2023-02-11T09:48:44;0.20;;;0.20;;
9643;SDS011;4860;50.900;4.720;2023-02-11T09:51:23;0.28;;;0.28;;
9643;SDS011;4860;50.900;4.720;2023-02-11T09:53:55;0.20;;;0.20;;
9643;SDS011;4860;50.900;4.720;2023-02-11T09:56:22;0.20;;;0.20;;
9643;SDS011;4860;50.900;4.720;2023-02-11T09:58:49;0.28;;;0.28;;
9643;SDS011;4860;50.900;4.720;2023-02-11T10:24:33;0.20;;;0.20;;
9643;SDS011;4860;50.900;4.720;2023-02-11T10:27:00;0.20;;;0.20;;
9643;SDS011;4860;50.900;4.720;2023-02-11T10:31:53;0.25;;;0.25;;
9643;SDS011;4860;50.900;4.720;2023-02-11T10:34:19;0.30;;;0.30;;
9643;SDS011;4860;50.900;4.720;2023-02-11T10:36:45;0.20;;;0.20;;
9643;SDS011;4860;50.900;4.720;2023-02-11T10:39:13;0.30;;;0.30;;
9643;SDS011;4860;50.900;4.720;2023-02-11T10:41:44;0.20;;;0.20;;
9643;SDS011;4860;50.900;4.720;2023-02-11T10:44:32;0.20;;;0.20;;
9643;SDS011;4860;50.900;4.720;2023-02-11T10:46:58;0.30;;;0.30;;
9643;SDS011;4860;50.900;4.720;2023-02-11T10:49:34;0.20;;;0.20;;
9643;SDS011;4860;50.900;4.720;2023-02-11T10:57:22;0.20;;;0.20;;
9643;SDS011;4860;50.900;4.720;2023-02-11T10:59:54;0.20;;;0.20;;
9643;SDS011;4860;50.900;4.720;2023-02-11T11:02:22;0.20;;;0.20;;
9643;SDS011;4860;50.900;4.720;2023-02-11T11:04:49;0.20;;;0.20;;
9643;SDS011;4860;50.900;4.720;2023-02-11T11:07:22;0.30;;;0.30;;
9643;SDS011;4860;50.900;4.720;2023-02-11T11:09:54;0.20;;;0.20;;
9643;SDS011;4860;50.900;4.720;2023-02-11T11:14:53;0.10;;;0.10;;
9643;SDS011;4860;50.900;4.720;2023-02-11T11:17:20;0.20;;;0.20;;
9643;SDS011;4860;50.900;4.720;2023-02-11T11:19:46;0.20;;;0.20;;
9643;SDS011;4860;50.900;4.720;2023-02-11T11:22:19;0.20;;;0.20;;
9643;SDS011;4860;50.900;4.720;2023-02-11T11:24:46;0.20;;;0.20;;
9643;SDS011;4860;50.900;4.720;2023-02-11T11:27:20;0.20;;;0.20;;
9643;SDS011;4860;50.900;4.720;2023-02-11T11:29:47;0.20;;;0.20;;
9643;SDS011;4860;50.900;4.720;2023-02-11T11:32:18;0.20;;;0.20;;
9643;SDS011;4860;50.900;4.720;2023-02-11T11:34:49;0.22;;;0.22;;
9643;SDS011;4860;50.900;4.720;2023-02-11T11:39:58;0.20;;;0.20;;
9643;SDS011;4860;50.900;4.720;2023-02-11T11:42:30;0.20;;;0.20;;
9643;SDS011;4860;50.900;4.720;2023-02-11T11:45:00;0.20;;;0.20;;
9643;SDS011;4860;50.900;4.720;2023-02-11T11:58:36;0.20;;;0.20;;
9643;SDS011;4860;50.900;4.720;2023-02-11T12:06:29;0.20;;;0.20;;
9643;SDS011;4860;50.900;4.720;2023-02-11T12:14:07;0.20;;;0.20;;
9643;SDS011;4860;50.900;4.720;2023-02-11T12:24:30;0.10;;;0.10;;
9643;SDS011;4860;50.900;4.720;2023-02-11T12:27:17;0.20;;;0.20;;
9643;SDS011;4860;50.900;4.720;2023-02-11T12:48:00;0.20;;;0.20;;
9643;SDS011;4860;50.900;4.720;2023-02-11T12:55:41;0.20;;;0.20;;
9643;SDS011;4860;50.900;4.720;2023-02-11T12:58:12;0.20;;;0.20;;
9643;SDS011;4860;50.900;4.720;2023-02-11T13:00:48;0.20;;;0.20;;
9643;SDS011;4860;50.900;4.720;2023-02-11T13:03:23;0.10;;;0.10;;
9643;SDS011;4860;50.900;4.720;2023-02-11T13:05:51;0.17;;;0.17;;
9643;SDS011;4860;50.900;4.720;2023-02-11T13:08:24;0.20;;;0.20;;
9643;SDS011;4860;50.900;4.720;2023-02-11T13:10:53;0.20;;;0.20;;
9643;SDS011;4860;50.900;4.720;2023-02-11T13:13:55;0.20;;;0.20;;
9643;SDS011;4860;50.900;4.720;2023-02-11T13:16:16;0.20;;;0.20;;
9643;SDS011;4860;50.900;4.720;2023-02-11T13:21:59;0.20;;;0.20;;
9643;SDS011;4860;50.900;4.720;2023-02-11T13:24:33;0.20;;;0.20;;
9643;SDS011;4860;50.900;4.720;2023-02-11T13:37:56;0.20;;;0.20;;
9643;SDS011;4860;50.900;4.720;2023-02-11T13:42:49;0.20;;;0.20;;
9643;SDS011;4860;50.900;4.720;2023-02-11T13:45:16;0.20;;;0.20;;
9643;SDS011;4860;50.900;4.720;2023-02-11T13:47:43;0.20;;;0.20;;
9643;SDS011;4860;50.900;4.720;2023-02-11T13:50:19;0.13;;;0.13;;
9643;SDS011;4860;50.900;4.720;2023-02-11T13:52:45;0.20;;;0.20;;
9643;SDS011;4860;50.900;4.720;2023-02-11T13:55:21;0.20;;;0.20;;
9643;SDS011;4860;50.900;4.720;2023-02-11T14:03:21;0.20;;;0.20;;
9643;SDS011;4860;50.900;4.720;2023-02-11T14:09:37;0.20;;;0.20;;
9643;SDS011;4860;50.900;4.720;2023-02-11T14:11:53;0.20;;;0.20;;
9643;SDS011;4860;50.900;4.720;2023-02-11T14:17:28;0.20;;;0.20;;
9643;SDS011;4860;50.900;4.720;2023-02-11T14:19:55;0.10;;;0.10;;
9643;SDS011;4860;50.900;4.720;2023-02-11T14:24:58;0.20;;;0.20;;
9643;SDS011;4860;50.900;4.720;2023-02-11T14:38:04;0.15;;;0.15;;
9643;SDS011;4860;50.900;4.720;2023-02-11T14:43:11;0.20;;;0.20;;
9643;SDS011;4860;50.900;4.720;2023-02-11T14:45:38;0.20;;;0.20;;
9643;SDS011;4860;50.900;4.720;2023-02-11T14:48:06;0.20;;;0.20;;
9643;SDS011;4860;50.900;4.720;2023-02-11T14:53:22;0.20;;;0.20;;
9643;SDS011;4860;50.900;4.720;2023-02-11T14:55:50;0.20;;;0.20;;
9643;SDS011;4860;50.900;4.720;2023-02-11T14:58:18;0.20;;;0.20;;
9643;SDS011;4860;50.900;4.720;2023-02-11T15:00:49;0.20;;;0.20;;
9643;SDS011;4860;50.900;4.720;2023-02-11T15:06:02;0.20;;;0.20;;
9643;SDS011;4860;50.900;4.720;2023-02-11T15:08:29;0.20;;;0.20;;
9643;SDS011;4860;50.900;4.720;2023-02-11T15:10:55;0.20;;;0.20;;
9643;SDS011;4860;50.900;4.720;2023-02-11T15:13:22;0.20;;;0.20;;
9643;SDS011;4860;50.900;4.720;2023-02-11T15:15:57;0.20;;;0.20;;
9643;SDS011;4860;50.900;4.720;2023-02-11T15:18:25;0.10;;;0.10;;
9643;SDS011;4860;50.900;4.720;2023-02-11T15:20:54;0.10;;;0.10;;
9643;SDS011;4860;50.900;4.720;2023-02-11T15:23:21;0.10;;;0.10;;
9643;SDS011;4860;50.900;4.720;2023-02-11T15:25:48;0.10;;;0.10;;
9643;SDS011;4860;50.900;4.720;2023-02-11T15:28:29;0.20;;;0.20;;
9643;SDS011;4860;50.900;4.720;2023-02-11T15:31:13;0.20;;;0.20;;
9643;SDS011;4860;50.900;4.720;2023-02-11T15:33:39;0.13;;;0.13;;
9643;SDS011;4860;50.900;4.720;2023-02-11T15:36:05;0.10;;;0.10;;
9643;SDS011;4860;50.900;4.720;2023-02-11T15:38:31;0.10;;;0.10;;
9643;SDS011;4860;50.900;4.720;2023-02-11T15:41:01;0.20;;;0.20;;
9643;SDS011;4860;50.900;4.720;2023-02-11T15:43:41;0.10;;;0.10;;
9643;SDS011;4860;50.900;4.720;2023-02-11T15:46:07;0.13;;;0.13;;
9643;SDS011;4860;50.900;4.720;2023-02-11T15:48:41;0.20;;;0.20;;
9643;SDS011;4860;50.900;4.720;2023-02-11T15:51:17;0.20;;;0.20;;
9643;SDS011;4860;50.900;4.720;2023-02-11T15:53:47;0.17;;;0.17;;
9643;SDS011;4860;50.900;4.720;2023-02-11T15:56:19;0.10;;;0.10;;
9643;SDS011;4860;50.900;4.720;2023-02-11T15:58:48;0.10;;;0.10;;
9643;SDS011;4860;50.900;4.720;2023-02-11T16:01:16;0.20;;;0.20;;
9643;SDS011;4860;50.900;4.720;2023-02-11T16:03:42;0.17;;;0.17;;
9643;SDS011;4860;50.900;4.720;2023-02-11T16:08:58;0.20;;;0.20;;
9643;SDS011;4860;50.900;4.720;2023-02-11T16:11:35;0.20;;;0.20;;
9643;SDS011;4860;50.900;4.720;2023-02-11T16:14:18;0.20;;;0.20;;
9643;SDS011;4860;50.900;4.720;2023-02-11T16:16:45;0.13;;;0.13;;
9643;SDS011;4860;50.900;4.720;2023-02-11T16:19:16;0.10;;;0.10;;
9643;SDS011;4860;50.900;4.720;2023-02-11T16:21:43;0.20;;;0.20;;
9643;SDS011;4860;50.900;4.720;2023-02-11T16:24:20;0.20;;;0.20;;
9643;SDS011;4860;50.900;4.720;2023-02-11T16:26:47;0.20;;;0.20;;
9643;SDS011;4860;50.900;4.720;2023-02-11T16:29:15;0.20;;;0.20;;
9643;SDS011;4860;50.900;4.720;2023-02-11T16:31:45;0.20;;;0.20;;
9643;SDS011;4860;50.900;4.720;2023-02-11T16:36:38;0.20;;;0.20;;
9643;SDS011;4860;50.900;4.720;2023-02-11T16:39:04;0.10;;;0.10;;
9643;SDS011;4860;50.900;4.720;2023-02-11T16:41:30;0.20;;;0.20;;
9643;SDS011;4860;50.900;4.720;2023-02-11T16:43:56;0.20;;;0.20;;
9643;SDS011;4860;50.900;4.720;2023-02-11T16:46:22;0.20;;;0.20;;
9643;SDS011;4860;50.900;4.720;2023-02-11T16:48:50;0.20;;;0.20;;
9643;SDS011;4860;50.900;4.720;2023-02-11T16:51:16;0.20;;;0.20;;
9643;SDS011;4860;50.900;4.720;2023-02-11T16:53:43;0.20;;;0.20;;
9643;SDS011;4860;50.900;4.720;2023-02-11T16:56:11;0.20;;;0.20;;
9643;SDS011;4860;50.900;4.720;2023-02-11T16:58:38;0.20;;;0.20;;
9643;SDS011;4860;50.900;4.720;2023-02-11T17:01:05;0.20;;;0.20;;
9643;SDS011;4860;50.900;4.720;2023-02-11T17:03:31;0.20;;;0.20;;
9643;SDS011;4860;50.900;4.720;2023-02-11T17:06:02;0.20;;;0.20;;
9643;SDS011;4860;50.900;4.720;2023-02-11T17:08:30;0.25;;;0.25;;
9643;SDS011;4860;50.900;4.720;2023-02-11T17:10:56;0.20;;;0.20;;
9643;SDS011;4860;50.900;4.720;2023-02-11T17:13:22;0.20;;;0.20;;
9643;SDS011;4860;50.900;4.720;2023-02-11T17:15:48;0.13;;;0.13;;
9643;SDS011;4860;50.900;4.720;2023-02-11T17:18:14;0.20;;;0.20;;
9643;SDS011;4860;50.900;4.720;2023-02-11T17:20:40;0.10;;;0.10;;
9643;SDS011;4860;50.900;4.720;2023-02-11T17:23:06;0.30;;;0.30;;
9643;SDS011;4860;50.900;4.720;2023-02-11T17:25:33;0.20;;;0.20;;
9643;SDS011;4860;50.900;4.720;2023-02-11T17:28:01;0.20;;;0.20;;
9643;SDS011;4860;50.900;4.720;2023-02-11T17:30:28;0.20;;;0.20;;
9643;SDS011;4860;50.900;4.720;2023-02-11T17:32:54;0.20;;;0.20;;
9643;SDS011;4860;50.900;4.720;2023-02-11T17:35:20;0.20;;;0.20;;
9643;SDS011;4860;50.900;4.720;2023-02-11T17:37:46;0.20;;;0.20;;
9643;SDS011;4860;50.900;4.720;2023-02-11T17:40:13;0.10;;;0.10;;
9643;SDS011;4860;50.900;4.720;2023-02-11T17:42:39;0.20;;;0.20;;
9643;SDS011;4860;50.900;4.720;2023-02-11T17:45:06;0.28;;;0.28;;
9643;SDS011;4860;50.900;4.720;2023-02-11T17:47:32;0.20;;;0.20;;
9643;SDS011;4860;50.900;4.720;2023-02-11T17:49:59;0.20;;;0.20;;
9643;SDS011;4860;50.900;4.720;2023-02-11T17:52:25;0.20;;;0.20;;
9643;SDS011;4860;50.900;4.720;2023-02-11T17:54:52;0.20;;;0.20;;
9643;SDS011;4860;50.900;4.720;2023-02-11T17:57:19;0.20;;;0.20;;
9643;SDS011;4860;50.900;4.720;2023-02-11T17:59:45;0.20;;;0.20;;
9643;SDS011;4860;50.900;4.720;2023-02-11T18:02:11;0.20;;;0.20;;
9643;SDS011;4860;50.900;4.720;2023-02-11T18:04:37;0.20;;;0.20;;
9643;SDS011;4860;50.900;4.720;2023-02-11T18:07:04;0.10;;;0.10;;
9643;SDS011;4860;50.900;4.720;2023-02-11T18:09:34;0.20;;;0.20;;
9643;SDS011;4860;50.900;4.720;2023-02-11T18:12:00;0.20;;;0.20;;
9643;SDS011;4860;50.900;4.720;2023-02-11T18:14:26;0.20;;;0.20;;
9643;SDS011;4860;50.900;4.720;2023-02-11T18:16:52;0.20;;;0.20;;